Time;durP1;ratioP1;P1;durP2;ratioP2;P2;SDS_P1;SDS_P2;PMS_P1;PMS_P2;Temp;Humidity;BMP_temperature;BMP_pressure;BME280_temperature;BME280_humidity;BME280_pressure;Samples;Min_cycle;Max_cycle;Signal;HPM_P1;HPM_P2
2021/07/21 00:00:23;;;;;;;13.63;11.97;;;19.10;99.90;;;;;;4952983;28;20267;-74
2021/07/21 00:02:49;;;;;;;15.43;12.47;;;19.10;99.90;;;;;;4953807;28;20173;-74
2021/07/21 00:05:17;;;;;;;17.90;12.33;;;19.00;99.90;;;;;;4952156;28;20313;-74
2021/07/21 00:07:42;;;;;;;14.93;12.27;;;19.00;99.90;;;;;;4953492;28;20570;-75
2021/07/21 00:10:10;;;;;;;14.27;12.20;;;19.00;99.90;;;;;;4954154;29;20196;-74
2021/07/21 00:15:23;;;;;;;16.10;12.60;;;18.90;99.90;;;;;;4953654;28;20710;-74
2021/07/21 00:17:58;;;;;;;13.93;11.53;;;18.90;99.90;;;;;;4953495;28;20169;-74
2021/07/21 00:20:24;;;;;;;15.73;12.37;;;18.80;99.90;;;;;;4953798;28;20580;-74
2021/07/21 00:22:49;;;;;;;13.57;12.10;;;18.80;99.90;;;;;;4950337;29;20173;-75
2021/07/21 00:25:16;;;;;;;14.87;12.30;;;18.80;99.90;;;;;;4953653;28;20208;-74
2021/07/21 00:27:43;;;;;;;15.83;11.50;;;18.70;99.90;;;;;;4953863;28;20558;-75
2021/07/21 00:30:12;;;;;;;15.07;12.67;;;18.70;99.90;;;;;;4953701;28;20188;-75
2021/07/21 00:32:38;;;;;;;15.30;12.17;;;18.60;99.90;;;;;;4953769;28;20188;-74
2021/07/21 00:35:09;;;;;;;17.07;13.03;;;18.50;99.90;;;;;;4953440;28;20205;-75
2021/07/21 00:37:35;;;;;;;15.60;12.40;;;18.40;99.90;;;;;;4953467;28;20558;-75
2021/07/21 00:40:07;;;;;;;13.63;11.83;;;18.30;99.90;;;;;;4953557;28;20184;-75
2021/07/21 00:42:32;;;;;;;14.27;11.93;;;18.20;99.90;;;;;;4954900;28;20173;-74
2021/07/21 00:44:58;;;;;;;14.80;13.30;;;18.20;99.90;;;;;;4957215;28;20627;-75
2021/07/21 00:47:24;;;;;;;16.63;14.27;;;18.20;99.90;;;;;;4954824;29;20191;-74
2021/07/21 00:49:49;;;;;;;19.53;15.30;;;18.30;99.90;;;;;;4957132;29;20189;-74
2021/07/21 00:52:18;;;;;;;18.67;16.03;;;18.30;99.90;;;;;;4955594;29;20200;-75
2021/07/21 00:54:48;;;;;;;21.07;16.30;;;18.30;99.90;;;;;;4957388;28;20288;-74
2021/07/21 00:57:15;;;;;;;17.57;14.87;;;18.20;99.90;;;;;;4956908;28;20173;-74
2021/07/21 00:59:42;;;;;;;16.03;13.57;;;18.10;99.90;;;;;;4954547;28;20192;-75
2021/07/21 01:02:07;;;;;;;17.70;14.03;;;18.20;99.90;;;;;;4954456;28;20196;-75
2021/07/21 01:04:35;;;;;;;17.27;14.53;;;18.30;99.90;;;;;;4958095;28;20217;-74
2021/07/21 01:07:01;;;;;;;16.20;13.83;;;18.30;99.90;;;;;;4958560;28;20264;-75
2021/07/21 01:09:28;;;;;;;16.03;12.83;;;18.20;99.90;;;;;;4959876;28;20183;-74
2021/07/21 01:11:57;;;;;;;14.00;12.60;;;18.10;99.90;;;;;;4959727;29;20560;-74
2021/07/21 01:14:32;;;;;;;16.83;13.23;;;18.10;99.90;;;;;;4959017;28;20200;-75
2021/07/21 01:17:04;;;;;;;13.77;12.13;;;18.10;99.90;;;;;;4958077;28;20184;-75
2021/07/21 01:19:48;;;;;;;17.43;12.70;;;18.10;99.90;;;;;;4956393;29;20184;-75
2021/07/21 01:22:25;;;;;;;13.13;11.90;;;18.10;99.90;;;;;;4958352;28;20191;-74
2021/07/21 01:25:13;;;;;;;14.43;12.83;;;18.10;99.90;;;;;;4956358;28;20283;-75
2021/07/21 01:27:55;;;;;;;14.93;12.20;;;18.00;99.90;;;;;;4957666;28;20182;-75
2021/07/21 01:30:35;;;;;;;14.57;11.67;;;18.10;99.90;;;;;;4956748;28;20216;-75
2021/07/21 01:33:02;;;;;;;13.00;11.60;;;18.00;99.90;;;;;;4955608;29;20718;-75
2021/07/21 01:35:37;;;;;;;13.07;11.60;;;17.90;99.90;;;;;;4955638;28;20212;-74
2021/07/21 01:38:08;;;;;;;13.80;12.40;;;17.80;99.90;;;;;;4956681;28;20544;-74
2021/07/21 01:40:41;;;;;;;12.20;11.00;;;15.80;99.90;;;;;;4985248;23;20314;-76
2021/07/21 01:43:11;;;;;;;16.17;12.30;;;17.60;99.90;;;;;;4967275;28;20192;-76
2021/07/21 01:45:40;;;;;;;15.70;12.53;;;17.50;99.90;;;;;;4961054;28;20177;-76
2021/07/21 01:48:08;;;;;;;14.83;11.60;;;17.50;99.90;;;;;;4957464;28;20180;-76
2021/07/21 01:50:36;;;;;;;17.20;12.60;;;17.50;99.90;;;;;;4930717;29;20285;-76
2021/07/21 01:53:02;;;;;;;14.87;12.30;;;17.40;99.90;;;;;;4955641;29;20340;-76
2021/07/21 01:55:28;;;;;;;13.13;11.83;;;17.40;99.90;;;;;;4955362;29;20189;-76
2021/07/21 01:57:55;;;;;;;16.80;13.07;;;17.40;99.90;;;;;;4955481;29;20735;-76
2021/07/21 02:00:22;;;;;;;13.50;12.20;;;17.30;99.90;;;;;;4955324;29;20197;-75
2021/07/21 02:02:52;;;;;;;12.30;10.77;;;17.20;99.90;;;;;;4955407;29;20186;-76
2021/07/21 02:05:19;;;;;;;13.47;11.90;;;17.20;99.90;;;;;;4955390;29;20189;-76
2021/07/21 02:07:46;;;;;;;14.97;11.80;;;17.10;99.90;;;;;;4955244;28;20562;-76
2021/07/21 02:10:24;;;;;;;16.17;11.27;;;17.10;99.90;;;;;;4955222;29;20888;-76
2021/07/21 02:13:07;;;;;;;15.77;11.87;;;17.20;99.90;;;;;;4952848;29;20205;-76
2021/07/21 02:15:34;;;;;;;12.87;11.53;;;17.20;99.90;;;;;;4935362;29;20609;-76
2021/07/21 02:18:00;;;;;;;14.87;11.70;;;17.20;99.90;;;;;;4920894;29;20243;-76
2021/07/21 02:20:26;;;;;;;14.33;12.10;;;17.10;99.90;;;;;;4942004;29;20724;-76
2021/07/21 02:22:53;;;;;;;13.10;11.80;;;17.00;99.90;;;;;;4935649;29;20908;-76
2021/07/21 02:25:22;;;;;;;12.87;11.57;;;;;;;;;;4938331;28;20663;-76
2021/07/21 02:27:47;;;;;;;13.07;11.63;;;16.90;99.90;;;;;;4929419;29;20216;-76
2021/07/21 02:30:14;;;;;;;12.80;11.60;;;17.00;99.90;;;;;;4922509;29;20209;-76
2021/07/21 02:32:50;;;;;;;14.70;11.10;;;17.00;99.90;;;;;;4948148;29;20185;-76
2021/07/21 02:35:20;;;;;;;14.53;12.13;;;17.00;99.90;;;;;;4928998;29;20261;-76
2021/07/21 02:37:47;;;;;;;18.13;12.07;;;17.00;99.90;;;;;;4947944;29;20254;-76
2021/07/21 02:40:13;;;;;;;12.77;11.47;;;17.10;99.90;;;;;;4949990;29;20229;-76
2021/07/21 02:42:39;;;;;;;13.90;11.97;;;17.00;99.90;;;;;;4950589;29;20241;-76
2021/07/21 02:45:05;;;;;;;13.43;11.30;;;17.10;99.90;;;;;;4949278;29;20189;-76
2021/07/21 02:47:32;;;;;;;12.17;10.83;;;17.10;99.90;;;;;;4949331;29;20611;-76
2021/07/21 02:49:58;;;;;;;13.70;11.33;;;17.00;99.90;;;;;;4927959;29;20244;-76
2021/07/21 02:52:27;;;;;;;15.80;12.03;;;16.90;99.90;;;;;;4948682;29;20212;-76
2021/07/21 02:54:59;;;;;;;15.00;11.53;;;16.90;99.90;;;;;;4947820;29;20205;-76
2021/07/21 02:57:38;;;;;;;13.93;10.93;;;16.80;99.90;;;;;;4948577;29;20181;-76
2021/07/21 03:00:16;;;;;;;14.83;11.20;;;16.80;99.90;;;;;;4941663;29;20682;-76
2021/07/21 03:02:43;;;;;;;12.70;10.90;;;16.90;99.90;;;;;;4944349;29;20184;-76
2021/07/21 03:05:12;;;;;;;15.17;11.43;;;17.00;99.90;;;;;;4946627;29;20652;-75
2021/07/21 03:07:50;;;;;;;16.73;11.07;;;16.90;99.90;;;;;;4951037;29;20668;-76
2021/07/21 03:10:17;;;;;;;14.30;10.83;;;16.80;99.90;;;;;;4947154;29;20417;-75
2021/07/21 03:12:47;;;;;;;11.97;10.70;;;16.80;99.90;;;;;;4948535;29;20255;-75
2021/07/21 03:15:14;;;;;;;15.00;11.10;;;16.80;99.90;;;;;;4947786;29;20208;-76
2021/07/21 03:17:45;;;;;;;13.60;11.20;;;16.80;99.90;;;;;;4951448;29;20185;-76
2021/07/21 03:20:12;;;;;;;11.90;10.53;;;16.80;99.90;;;;;;4948494;29;20215;-76
2021/07/21 03:22:40;;;;;;;12.30;10.83;;;16.70;99.90;;;;;;4951323;29;20212;-76
2021/07/21 03:25:08;;;;;;;13.07;10.90;;;16.80;99.90;;;;;;4949248;29;20184;-76
2021/07/21 03:27:36;;;;;;;12.40;11.07;;;16.80;99.90;;;;;;4947410;28;20555;-76
2021/07/21 03:30:07;;;;;;;12.20;10.70;;;16.80;99.90;;;;;;4953597;28;20664;-74
2021/07/21 03:32:34;;;;;;;12.87;10.43;;;16.70;99.90;;;;;;4941816;28;20203;-76
2021/07/21 03:34:59;;;;;;;13.70;11.23;;;16.70;99.90;;;;;;4940476;28;20877;-76
2021/07/21 03:37:27;;;;;;;11.80;10.43;;;16.70;99.90;;;;;;4934104;29;20235;-75
2021/07/21 03:39:58;;;;;;;13.73;11.47;;;16.70;99.90;;;;;;4934455;29;20220;-76
2021/07/21 03:42:28;;;;;;;12.27;10.97;;;16.70;99.90;;;;;;4936638;29;20675;-75
2021/07/21 03:44:59;;;;;;;12.33;10.80;;;16.70;99.90;;;;;;4936891;29;20209;-76
2021/07/21 03:47:25;;;;;;;13.17;11.03;;;16.70;99.90;;;;;;4935621;29;20193;-76
2021/07/21 03:49:52;;;;;;;11.87;9.80;;;16.60;99.90;;;;;;4935932;29;20202;-75
2021/07/21 03:52:18;;;;;;;15.20;10.27;;;16.60;99.90;;;;;;4937558;29;20199;-76
2021/07/21 03:54:46;;;;;;;11.97;10.47;;;16.60;99.90;;;;;;4945766;29;20207;-75
2021/07/21 03:57:13;;;;;;;11.40;10.00;;;16.60;99.90;;;;;;4938345;29;20674;-75
2021/07/21 03:59:39;;;;;;;13.57;9.93;;;16.60;99.90;;;;;;4936362;29;20579;-76
2021/07/21 04:02:07;;;;;;;13.13;11.30;;;16.60;99.90;;;;;;4944535;29;20237;-75
2021/07/21 04:04:35;;;;;;;12.37;10.13;;;16.50;99.90;;;;;;4938153;29;20185;-75
2021/07/21 04:07:01;;;;;;;12.30;10.03;;;16.60;99.90;;;;;;4948692;28;20181;-76
2021/07/21 04:09:28;;;;;;;11.37;10.27;;;16.60;99.90;;;;;;4944848;28;20194;-75
2021/07/21 04:11:56;;;;;;;13.30;10.00;;;16.60;99.90;;;;;;4934652;29;20183;-74
2021/07/21 04:14:22;;;;;;;10.93;9.30;;;16.60;99.90;;;;;;4934602;29;20192;-74
2021/07/21 04:16:50;;;;;;;12.03;10.17;;;16.60;99.90;;;;;;4936167;29;20209;-74
2021/07/21 04:19:17;;;;;;;13.33;10.10;;;16.70;99.90;;;;;;4936176;29;20200;-75
2021/07/21 04:21:47;;;;;;;10.97;9.87;;;16.80;99.90;;;;;;4953250;29;20235;-74
2021/07/21 04:24:14;;;;;;;13.23;10.20;;;16.90;99.90;;;;;;4953819;29;20656;-74
2021/07/21 04:26:41;;;;;;;10.47;9.47;;;16.90;99.90;;;;;;4937524;29;20671;-74
2021/07/21 04:29:22;;;;;;;13.30;9.47;;;16.90;99.90;;;;;;4954963;29;20189;-74
2021/07/21 04:31:49;;;;;;;10.47;9.43;;;16.90;99.90;;;;;;4939174;29;20187;-74
2021/07/21 04:34:16;;;;;;;10.97;9.30;;;16.90;99.90;;;;;;4953549;29;20648;-75
2021/07/21 04:36:43;;;;;;;11.03;9.97;;;17.00;99.90;;;;;;4953577;29;20644;-75
2021/07/21 04:39:20;;;;;;;13.33;9.77;;;17.00;99.90;;;;;;4939214;29;20184;-74
2021/07/21 04:41:49;;;;;;;13.00;9.63;;;16.90;99.90;;;;;;4958310;29;20552;-73
2021/07/21 04:44:15;;;;;;;12.77;10.13;;;17.00;99.90;;;;;;4957858;29;20264;-75
2021/07/21 04:46:42;;;;;;;17.37;10.53;;;17.00;99.90;;;;;;4940626;29;20276;-75
2021/07/21 04:49:11;;;;;;;12.80;10.10;;;17.10;99.90;;;;;;4958345;29;20188;-72
2021/07/21 04:51:38;;;;;;;11.53;10.33;;;17.00;99.90;;;;;;4941027;29;20191;-74
2021/07/21 04:54:05;;;;;;;15.93;10.10;;;17.00;99.90;;;;;;4956987;29;20591;-74
2021/07/21 04:56:32;;;;;;;12.60;9.73;;;17.00;99.90;;;;;;4956682;29;20678;-74
2021/07/21 04:58:57;;;;;;;11.23;10.10;;;17.00;99.90;;;;;;4956281;29;20181;-72
2021/07/21 05:01:23;;;;;;;13.20;9.57;;;17.00;99.90;;;;;;4957612;29;20185;-73
2021/07/21 05:03:49;;;;;;;10.73;9.63;;;17.10;99.90;;;;;;4957933;29;20184;-73
2021/07/21 05:06:17;;;;;;;11.73;10.53;;;17.10;99.90;;;;;;4957202;29;20185;-72
2021/07/21 05:08:43;;;;;;;14.03;9.93;;;17.10;99.90;;;;;;4957822;28;20560;-72
2021/07/21 05:11:09;;;;;;;11.73;10.07;;;17.20;99.90;;;;;;4940466;29;20211;-74
2021/07/21 05:13:40;;;;;;;11.93;9.93;;;17.20;99.90;;;;;;4957713;29;20192;-74
2021/07/21 05:16:06;;;;;;;11.83;9.83;;;17.20;99.90;;;;;;4940421;29;20203;-74
2021/07/21 05:18:32;;;;;;;12.50;10.30;;;17.20;99.90;;;;;;4933364;29;20707;-75
2021/07/21 05:20:58;;;;;;;11.37;10.17;;;17.30;99.90;;;;;;4934725;29;20201;-74
2021/07/21 05:23:23;;;;;;;14.27;10.50;;;17.30;99.90;;;;;;4942083;29;20178;-71
2021/07/21 05:25:49;;;;;;;13.77;10.20;;;17.30;99.90;;;;;;4932490;29;20300;-71
2021/07/21 05:28:15;;;;;;;12.97;10.03;;;17.40;99.90;;;;;;4944574;29;20566;-73
2021/07/21 05:30:40;;;;;;;11.93;9.83;;;17.50;99.90;;;;;;4959956;29;20216;-81
2021/07/21 05:33:06;;;;;;;12.73;9.93;;;17.50;99.90;;;;;;4969466;29;20196;-82
2021/07/21 05:35:32;;;;;;;12.67;9.87;;;17.60;99.90;;;;;;4951626;29;20204;-82
2021/07/21 05:37:57;;;;;;;12.37;9.47;;;17.70;99.90;;;;;;4952848;29;20216;-81
2021/07/21 05:40:23;;;;;;;10.77;9.63;;;17.80;99.90;;;;;;4952804;29;20208;-82
2021/07/21 05:42:49;;;;;;;11.90;10.50;;;17.90;99.90;;;;;;4970952;29;20193;-82
2021/07/21 05:45:15;;;;;;;12.43;9.73;;;18.00;99.90;;;;;;4953835;29;20193;-79
2021/07/21 05:47:41;;;;;;;10.20;9.20;;;18.20;99.90;;;;;;4956118;29;20636;-80
2021/07/21 05:50:08;;;;;;;12.63;9.17;;;18.20;99.90;;;;;;4951505;29;20209;-81
2021/07/21 05:52:34;;;;;;;11.00;9.33;;;18.20;99.90;;;;;;4964260;29;20197;-80
2021/07/21 05:55:00;;;;;;;9.70;8.80;;;18.40;99.90;;;;;;4964396;29;20189;-80
2021/07/21 05:57:25;;;;;;;10.50;9.17;;;18.40;99.90;;;;;;4954204;29;20188;-81
2021/07/21 05:59:52;;;;;;;13.20;10.20;;;18.50;99.90;;;;;;4971010;29;20219;-80
2021/07/21 06:02:19;;;;;;;11.23;10.07;;;18.50;99.90;;;;;;4971356;29;20180;-80
2021/07/21 06:04:44;;;;;;;10.83;9.73;;;18.60;99.90;;;;;;4953310;29;20181;-80
2021/07/21 06:07:10;;;;;;;13.43;9.97;;;18.70;99.90;;;;;;4969678;29;20290;-81
2021/07/21 06:09:36;;;;;;;10.93;9.83;;;18.80;99.90;;;;;;4950170;29;20211;-80
2021/07/21 06:12:02;;;;;;;10.87;9.50;;;18.80;99.90;;;;;;4971632;29;20182;-80
2021/07/21 06:14:29;;;;;;;11.80;10.13;;;18.80;99.90;;;;;;4971374;28;20196;-81
2021/07/21 06:16:54;;;;;;;12.03;9.67;;;18.90;99.90;;;;;;4953785;29;20181;-80
2021/07/21 06:19:20;;;;;;;11.83;10.10;;;18.90;99.90;;;;;;4949556;29;20197;-80
2021/07/21 06:21:46;;;;;;;11.23;10.10;;;19.00;99.90;;;;;;4970880;29;20177;-79
2021/07/21 06:24:11;;;;;;;10.73;9.70;;;19.10;99.90;;;;;;4969494;29;20193;-80
2021/07/21 06:26:37;;;;;;;13.03;10.30;;;19.20;99.90;;;;;;4967474;29;20223;-81
2021/07/21 06:29:03;;;;;;;11.83;10.27;;;19.30;99.90;;;;;;4960625;29;20221;-80
2021/07/21 06:31:29;;;;;;;11.70;10.50;;;19.30;99.90;;;;;;4970649;29;20184;-80
2021/07/21 06:33:55;;;;;;;14.00;11.00;;;19.40;99.90;;;;;;4971931;29;20192;-81
2021/07/21 06:36:21;;;;;;;16.37;10.53;;;19.40;99.90;;;;;;4971193;29;20201;-80
2021/07/21 06:38:46;;;;;;;14.97;10.57;;;19.50;99.90;;;;;;4957243;29;20241;-80
2021/07/21 06:41:13;;;;;;;12.93;10.77;;;19.50;99.90;;;;;;4971053;29;20220;-80
2021/07/21 06:43:40;;;;;;;12.73;10.40;;;19.60;99.90;;;;;;4970044;29;20177;-80
2021/07/21 06:46:06;;;;;;;12.40;10.90;;;19.70;99.90;;;;;;4970396;29;20200;-80
2021/07/21 06:48:31;;;;;;;11.33;10.17;;;19.70;99.90;;;;;;4952742;29;20205;-82
2021/07/21 06:50:57;;;;;;;20.10;10.93;;;19.70;99.90;;;;;;4969912;29;20201;-79
2021/07/21 06:53:23;;;;;;;12.37;10.90;;;19.70;99.90;;;;;;4952051;29;20189;-80
2021/07/21 06:55:49;;;;;;;16.13;11.03;;;19.70;99.90;;;;;;4951624;29;20208;-80
2021/07/21 06:58:15;;;;;;;12.77;10.97;;;19.70;99.90;;;;;;4969495;29;20220;-80
2021/07/21 07:00:41;;;;;;;13.93;11.70;;;19.70;99.90;;;;;;4953213;28;20219;-80
2021/07/21 07:03:06;;;;;;;16.90;11.03;;;19.80;99.90;;;;;;4953824;29;20181;-80
2021/07/21 07:05:32;;;;;;;13.77;10.93;;;19.90;99.90;;;;;;4970117;29;20213;-80
2021/07/21 07:07:58;;;;;;;13.50;11.03;;;19.80;99.90;;;;;;4952594;28;20184;-79
2021/07/21 07:10:24;;;;;;;12.53;10.17;;;19.90;99.90;;;;;;4951944;29;20232;-80
2021/07/21 07:12:50;;;;;;;13.47;11.00;;;19.90;99.90;;;;;;4951968;29;20199;-81
2021/07/21 07:15:15;;;;;;;11.80;10.60;;;20.00;99.90;;;;;;4952635;29;20201;-81
2021/07/21 07:17:41;;;;;;;11.93;10.37;;;20.00;99.90;;;;;;4968908;29;20591;-81
2021/07/21 07:20:08;;;;;;;14.23;11.37;;;20.10;99.90;;;;;;4969808;29;20193;-80
2021/07/21 07:22:34;;;;;;;14.83;11.37;;;20.10;99.90;;;;;;4951188;29;20173;-81
2021/07/21 07:25:00;;;;;;;12.27;11.03;;;20.20;99.90;;;;;;4968213;29;20177;-78
2021/07/21 07:27:27;;;;;;;12.13;10.77;;;20.20;99.90;;;;;;4969651;29;20176;-80
2021/07/21 07:29:53;;;;;;;12.87;11.40;;;20.20;99.90;;;;;;4952935;29;20197;-81
2021/07/21 07:32:19;;;;;;;14.33;11.07;;;20.30;99.90;;;;;;4950023;29;20225;-80
2021/07/21 07:34:44;;;;;;;11.10;10.00;;;20.20;99.90;;;;;;4948118;29;20181;-82
2021/07/21 07:37:10;;;;;;;12.33;11.03;;;20.30;99.90;;;;;;4969458;29;20194;-81
2021/07/21 07:39:41;;;;;;;11.93;10.27;;;20.30;99.90;;;;;;4951378;29;20221;-79
2021/07/21 07:42:08;;;;;;;14.10;10.33;;;20.40;99.90;;;;;;4998085;23;20639;-79
2021/07/21 07:44:34;;;;;;;12.10;10.57;;;20.50;99.90;;;;;;4974872;28;20264;-77
2021/07/21 07:46:59;;;;;;;11.63;10.17;;;20.70;99.90;;;;;;4957552;28;20172;-77
2021/07/21 07:49:25;;;;;;;11.80;10.17;;;20.80;99.90;;;;;;4975430;28;20234;-77
2021/07/21 07:51:51;;;;;;;11.50;10.33;;;20.90;99.90;;;;;;4975169;28;20196;-77
2021/07/21 07:54:18;;;;;;;13.83;10.13;;;21.00;99.90;;;;;;4957641;28;20177;-77
2021/07/21 07:56:45;;;;;;;11.50;10.33;;;21.10;99.90;;;;;;4970109;28;20254;-79
2021/07/21 07:59:11;;;;;;;12.57;10.40;;;21.10;99.90;;;;;;4972580;28;20231;-78
2021/07/21 08:01:36;;;;;;;12.27;10.77;;;21.10;99.90;;;;;;4958277;28;20652;-79
2021/07/21 08:04:02;;;;;;;14.33;10.70;;;21.10;99.90;;;;;;4957973;28;20184;-77
2021/07/21 08:06:28;;;;;;;13.17;10.67;;;21.20;99.90;;;;;;4975716;28;20204;-77
2021/07/21 08:08:54;;;;;;;15.23;11.17;;;21.30;99.90;;;;;;4959300;28;20219;-77
2021/07/21 08:11:19;;;;;;;11.40;10.23;;;21.40;99.90;;;;;;4974881;28;20204;-77
2021/07/21 08:13:45;;;;;;;11.63;10.37;;;21.60;99.90;;;;;;4976552;28;20223;-77
2021/07/21 08:16:12;;;;;;;13.67;10.17;;;21.70;99.90;;;;;;4979710;28;20658;-77
2021/07/21 08:18:39;;;;;;;13.00;11.37;;;21.70;99.90;;;;;;4979463;28;20173;-77
2021/07/21 08:21:05;;;;;;;15.27;11.00;;;21.90;99.90;;;;;;4963097;28;20200;-77
2021/07/21 08:23:32;;;;;;;15.67;10.80;;;21.90;99.90;;;;;;4976601;28;20181;-78
2021/07/21 08:25:58;;;;;;;13.37;11.37;;;22.00;99.90;;;;;;4979264;28;20195;-77
2021/07/21 08:28:24;;;;;;;13.70;10.97;;;22.10;99.90;;;;;;4962601;28;20197;-77
2021/07/21 08:30:50;;;;;;;13.17;11.73;;;21.90;99.90;;;;;;4979088;28;20208;-77
2021/07/21 08:33:15;;;;;;;15.47;11.73;;;21.80;99.90;;;;;;4979621;28;20188;-77
2021/07/21 08:35:42;;;;;;;12.33;11.07;;;22.10;99.90;;;;;;4961145;28;20205;-77
2021/07/21 08:38:08;;;;;;;14.27;10.90;;;22.40;99.90;;;;;;4978404;28;20181;-77
2021/07/21 08:40:34;;;;;;;11.17;10.07;;;22.40;99.90;;;;;;4978435;28;20278;-77
2021/07/21 08:43:00;;;;;;;12.67;10.47;;;;;;;;;;4978737;28;20207;-77
2021/07/21 08:45:26;;;;;;;11.80;10.60;;;22.70;99.90;;;;;;4979259;28;20555;-78
2021/07/21 08:47:53;;;;;;;12.63;10.33;;;22.80;99.90;;;;;;4978816;28;20267;-77
2021/07/21 08:50:19;;;;;;;13.30;11.47;;;22.80;99.90;;;;;;4978632;28;20207;-77
2021/07/21 08:52:45;;;;;;;14.53;11.53;;;22.90;99.90;;;;;;4961669;28;20187;-78
2021/07/21 08:55:13;;;;;;;13.33;12.03;;;23.00;99.90;;;;;;4978593;28;20208;-77
2021/07/21 08:57:40;;;;;;;16.53;11.77;;;22.80;99.90;;;;;;4978621;28;20231;-77
2021/07/21 09:00:14;;;;;;;14.37;12.13;;;22.70;99.90;;;;;;4978088;28;20231;-77
2021/07/21 09:02:41;;;;;;;12.13;10.83;;;22.80;99.90;;;;;;4977923;28;20172;-77
2021/07/21 09:05:09;;;;;;;13.17;11.73;;;23.00;99.90;;;;;;4978418;28;20180;-77
2021/07/21 09:07:36;;;;;;;12.93;11.40;;;23.20;99.90;;;;;;4977983;28;20191;-77
2021/07/21 09:10:08;;;;;;;12.57;11.43;;;23.10;99.90;;;;;;4978858;28;20203;-77
2021/07/21 09:12:36;;;;;;;12.93;11.70;;;23.10;99.90;;;;;;4978738;28;20185;-77
2021/07/21 09:15:02;;;;;;;14.70;11.73;;;23.20;99.90;;;;;;4960962;28;20286;-77
2021/07/21 09:17:29;;;;;;;13.67;12.27;;;23.30;99.90;;;;;;4977830;28;20184;-74
2021/07/21 09:19:55;;;;;;;13.47;12.10;;;23.50;99.90;;;;;;4989956;28;20180;-73
2021/07/21 09:22:26;;;;;;;12.17;10.83;;;23.60;99.90;;;;;;4966331;28;20188;-74
2021/07/21 09:25:15;;;;;;;13.27;11.97;;;23.70;99.90;;;;;;4959641;28;20185;-73
2021/07/21 09:27:44;;;;;;;12.87;11.53;;;23.90;99.90;;;;;;4977583;28;20177;-73
2021/07/21 09:30:13;;;;;;;15.83;11.97;;;23.90;99.90;;;;;;4977256;28;20192;-73
2021/07/21 09:32:58;;;;;;;13.17;11.83;;;23.70;99.90;;;;;;4977231;28;20184;-74
2021/07/21 09:35:30;;;;;;;17.60;12.47;;;23.90;99.90;;;;;;4959541;28;20207;-73
2021/07/21 09:37:58;;;;;;;16.77;12.63;;;24.00;99.90;;;;;;4976933;28;20192;-74
2021/07/21 09:40:24;;;;;;;18.40;12.57;;;;;;;;;;4976784;28;20216;-73
2021/07/21 09:42:51;;;;;;;15.70;12.23;;;24.30;99.90;;;;;;4977329;28;20263;-74
2021/07/21 09:45:18;;;;;;;13.87;12.40;;;24.50;99.90;;;;;;4976798;28;20188;-73
2021/07/21 09:48:00;;;;;;;14.77;12.73;;;24.50;99.90;;;;;;4975546;28;20180;-74
2021/07/21 09:50:31;;;;;;;18.73;12.70;;;24.60;99.90;;;;;;4969141;28;20204;-73
2021/07/21 09:53:04;;;;;;;15.97;12.50;;;24.60;99.90;;;;;;4960154;28;20687;-72
2021/07/21 09:55:35;;;;;;;14.53;13.00;;;24.60;99.90;;;;;;4966239;28;20214;-73
2021/07/21 09:58:04;;;;;;;14.30;12.80;;;24.70;99.90;;;;;;4964407;28;20723;-75
2021/07/21 10:00:38;;;;;;;14.13;12.70;;;24.70;99.90;;;;;;4952174;28;20549;-73
2021/07/21 10:03:24;;;;;;;17.20;13.03;;;24.80;99.90;;;;;;4969886;28;20176;-73
2021/07/21 10:05:57;;;;;;;16.87;13.27;;;25.00;99.90;;;;;;4968666;28;20262;-74
2021/07/21 10:08:40;;;;;;;15.97;12.57;;;25.00;99.90;;;;;;4962368;28;20558;-73
2021/07/21 10:11:32;;;;;;;14.60;13.20;;;25.00;99.90;;;;;;4970224;28;20200;-73
2021/07/21 10:14:04;;;;;;;17.23;12.27;;;24.90;99.90;;;;;;4965646;28;20659;-74
2021/07/21 10:16:34;;;;;;;13.97;12.67;;;25.10;99.90;;;;;;4963727;28;20224;-74
2021/07/21 10:19:15;;;;;;;14.70;12.13;;;25.20;99.90;;;;;;4969919;28;20192;-73
2021/07/21 10:21:47;;;;;;;14.93;12.77;;;25.40;99.90;;;;;;4962663;28;20256;-73
2021/07/21 10:24:13;;;;;;;19.60;13.97;;;25.60;99.90;;;;;;4961841;28;20208;-74
2021/07/21 10:26:40;;;;;;;16.67;13.77;;;25.80;99.90;;;;;;4964045;28;20189;-72
2021/07/21 10:29:07;;;;;;;14.97;13.30;;;25.70;99.90;;;;;;4962307;28;20707;-73
2021/07/21 10:31:34;;;;;;;14.23;12.73;;;25.60;99.90;;;;;;4965244;28;20719;-73
2021/07/21 10:34:00;;;;;;;14.93;13.43;;;25.60;99.90;;;;;;4943682;28;20184;-73
2021/07/21 10:36:26;;;;;;;14.07;12.57;;;25.60;99.90;;;;;;4965439;28;20200;-73
2021/07/21 10:38:52;;;;;;;14.40;13.00;;;25.70;99.90;;;;;;4962260;28;20316;-74
2021/07/21 10:41:19;;;;;;;14.30;12.90;;;25.70;99.90;;;;;;4961326;28;20308;-74
2021/07/21 10:43:52;;;;;;;15.77;13.90;;;25.80;99.90;;;;;;4958338;28;20181;-74
2021/07/21 10:46:36;;;;;;;13.83;12.43;;;25.70;99.90;;;;;;4965517;28;20177;-73
2021/07/21 10:49:16;;;;;;;14.97;13.37;;;25.80;99.90;;;;;;4974411;28;20212;-74
2021/07/21 10:52:25;;;;;;;14.73;13.27;;;26.00;99.90;;;;;;4974579;28;20275;-74
2021/07/21 11:00:22;;;;;;;15.00;13.40;;;26.70;99.90;;;;;;4975811;28;20208;-73
2021/07/21 11:02:50;;;;;;;15.97;13.33;;;26.70;99.90;;;;;;4975051;28;20173;-73
2021/07/21 11:05:31;;;;;;;15.33;13.83;;;26.50;99.90;;;;;;4975142;28;20665;-73
2021/07/21 11:07:58;;;;;;;15.97;13.80;;;26.60;99.90;;;;;;4975581;28;20597;-73
2021/07/21 11:10:30;;;;;;;18.80;13.23;;;26.90;99.90;;;;;;4975326;28;20196;-73
2021/07/21 11:12:56;;;;;;;14.77;13.30;;;27.00;99.90;;;;;;4975508;28;20176;-74
2021/07/21 11:15:50;;;;;;;18.00;12.73;;;27.20;99.90;;;;;;4975026;28;20215;-74
2021/07/21 11:18:22;;;;;;;15.33;13.63;;;27.20;99.90;;;;;;4972939;28;20334;-74
2021/07/21 11:21:15;;;;;;;14.97;13.03;;;27.10;99.90;;;;;;4974814;28;20272;-74
2021/07/21 11:23:53;;;;;;;14.70;13.30;;;27.00;99.90;;;;;;4971897;28;20193;-73
2021/07/21 11:26:34;;;;;;;18.57;13.57;;;26.90;99.90;;;;;;4975039;28;20180;-73
2021/07/21 11:29:24;;;;;;;14.40;13.00;;;26.80;99.90;;;;;;4975293;28;20208;-73
2021/07/21 11:31:50;;;;;;;17.20;14.80;;;26.90;99.90;;;;;;4975098;28;20207;-73
2021/07/21 11:34:29;;;;;;;15.33;13.50;;;26.80;99.90;;;;;;4957392;28;20185;-73
2021/07/21 11:36:58;;;;;;;18.10;13.60;;;26.90;99.90;;;;;;4975026;28;20319;-73
2021/07/21 11:39:50;;;;;;;15.60;13.83;;;27.20;99.90;;;;;;4975717;28;20180;-75
2021/07/21 11:42:31;;;;;;;14.87;13.33;;;27.20;99.90;;;;;;4976024;28;20176;-73
2021/07/21 11:45:03;;;;;;;16.17;13.67;;;27.20;99.90;;;;;;4975525;28;20195;-74
2021/07/21 11:47:40;;;;;;;14.27;12.93;;;27.20;99.90;;;;;;4975533;28;20172;-74
2021/07/21 11:50:14;;;;;;;15.13;13.63;;;27.40;99.90;;;;;;4974967;28;20183;-74
2021/07/21 11:52:40;;;;;;;15.73;14.13;;;27.30;99.90;;;;;;4975414;28;20176;-74
2021/07/21 11:55:07;;;;;;;14.27;12.80;;;27.10;99.90;;;;;;4974946;28;20200;-74
2021/07/21 11:57:33;;;;;;;14.67;13.17;;;27.10;99.90;;;;;;4974891;28;20666;-75
2021/07/21 12:00:02;;;;;;;14.70;13.20;;;27.60;99.90;;;;;;4971786;28;20184;-74
2021/07/21 12:02:29;;;;;;;15.70;13.33;;;27.80;99.90;;;;;;4975454;28;20172;-73
2021/07/21 12:04:57;;;;;;;15.00;13.60;;;27.90;99.90;;;;;;4975710;28;20651;-75
2021/07/21 12:07:30;;;;;;;14.97;13.57;;;27.60;99.90;;;;;;4974960;28;20260;-74
2021/07/21 12:09:56;;;;;;;15.23;13.47;;;27.50;99.90;;;;;;4958927;28;20177;-74
2021/07/21 12:12:25;;;;;;;15.00;13.07;;;27.70;99.90;;;;;;4975342;28;20176;-74
2021/07/21 12:14:56;;;;;;;14.67;13.27;;;28.20;99.90;;;;;;4975554;28;20180;-74
2021/07/21 12:17:26;;;;;;;14.80;13.30;;;28.20;99.90;;;;;;4975024;28;20234;-75
2021/07/21 12:19:57;;;;;;;16.60;12.90;;;28.00;99.90;;;;;;4974267;28;20173;-74
2021/07/21 12:22:25;;;;;;;14.20;12.80;;;28.00;99.90;;;;;;4973591;28;20300;-75
2021/07/21 12:24:56;;;;;;;14.10;12.70;;;28.10;99.90;;;;;;4974681;28;20556;-74
2021/07/21 12:27:32;;;;;;;15.73;12.40;;;28.20;99.90;;;;;;4976630;28;20181;-73
2021/07/21 12:30:02;;;;;;;13.73;12.20;;;28.10;99.90;;;;;;4974790;28;20200;-74
2021/07/21 12:32:28;;;;;;;14.30;12.97;;;28.20;99.90;;;;;;4958638;28;20180;-79
2021/07/21 12:34:55;;;;;;;14.93;13.43;;;28.20;99.90;;;;;;4975181;28;20179;-80
2021/07/21 12:37:24;;;;;;;17.40;13.37;;;28.10;99.90;;;;;;4977356;28;20592;-78
2021/07/21 12:39:53;;;;;;;16.30;13.27;;;28.00;99.90;;;;;;4959103;28;20268;-77
2021/07/21 12:42:20;;;;;;;14.63;13.33;;;27.90;99.90;;;;;;4977014;28;20204;-78
2021/07/21 12:44:48;;;;;;;18.60;12.97;;;27.70;99.90;;;;;;4976711;28;20196;-78